ADDS METAR Data INFO
IDs: Format: Raw Decoded Include TAF

Data at: 1131 UTC 29 May 2017

METAR for:PAVC (King Cove Arpt, AK, US)
Text:PAVC 291056Z AUTO 00000KT 10SM CLR 00/M01 A2983 RMK AO2 SLP106 T00001006 FZRANO
Temperature: 0.0°C ( 32°F)
Dewpoint: -0.6°C ( 31°F) [RH = 96%]
Pressure (altimeter):29.83 inches Hg (1010.2 mb) [Sea level pressure: 1010.6 mb]
Winds:calm
Visibility:10 or more sm (16+ km)
Ceiling:at least 12,000 feet AGL
Clouds:sky clear below 12,000 feet AGL
QC Flag:automated observation with no human augmentation
Text:PAVC 290956Z AUTO 00000KT 10SM CLR 01/00 A2982 RMK AO2 SLP104 T00110000 FZRANO
Temperature: 1.1°C ( 34°F)
Dewpoint: 0.0°C ( 32°F) [RH = 92%]
Pressure (altimeter):29.82 inches Hg (1009.9 mb) [Sea level pressure: 1010.4 mb]
Winds:calm
Visibility:10 or more sm (16+ km)
Ceiling:at least 12,000 feet AGL
Clouds:sky clear below 12,000 feet AGL
QC Flag:automated observation with no human augmentation
Text:PAVC 290856Z AUTO 00000KT 10SM CLR 02/01 A2982 RMK AO2 SLP102 T00220006 51009 FZRANO
Temperature: 2.2°C ( 36°F)
Dewpoint: 0.6°C ( 33°F) [RH = 89%]
Pressure (altimeter):29.82 inches Hg (1009.9 mb) [Sea level pressure: 1010.2 mb]
Winds:calm
Visibility:10 or more sm (16+ km)
Ceiling:at least 12,000 feet AGL
Clouds:sky clear below 12,000 feet AGL
QC Flag:automated observation with no human augmentation
Text:PAVC 290756Z AUTO 00000KT 10SM CLR 03/01 A2981 RMK AO2 SLP100 T00330011 401061017
Temperature: 3.3°C ( 38°F)
Dewpoint: 1.1°C ( 34°F) [RH = 85%]
Pressure (altimeter):29.81 inches Hg (1009.6 mb) [Sea level pressure: 1010.0 mb]
Winds:calm
Visibility:10 or more sm (16+ km)
Ceiling:at least 12,000 feet AGL
Clouds:sky clear below 12,000 feet AGL
QC Flag:automated observation with no human augmentation
Text:PAVC 290656Z AUTO 00000KT 10SM SCT038 04/02 A2980 RMK AO2 SLP097 T00440017
Temperature: 4.4°C ( 40°F)
Dewpoint: 1.7°C ( 35°F) [RH = 83%]
Pressure (altimeter):29.80 inches Hg (1009.2 mb) [Sea level pressure: 1009.7 mb]
Winds:calm
Visibility:10 or more sm (16+ km)
Ceiling:at least 12,000 feet AGL
Clouds: scattered clouds at 3800 feet AGL
QC Flag:automated observation with no human augmentation
Text:PAVC 290556Z AUTO 07005KT 10SM CLR 08/03 A2979 RMK AO2 SLP093 60000 T00780033 10106 20078 53003
Temperature: 7.8°C ( 46°F)
Dewpoint: 3.3°C ( 38°F) [RH = 73%]
Pressure (altimeter):29.79 inches Hg (1008.9 mb) [Sea level pressure: 1009.3 mb]
Winds:from the ENE (70 degrees) at 6 MPH (5 knots; 2.6 m/s)
Visibility:10 or more sm (16+ km)
Ceiling:at least 12,000 feet AGL
Clouds:sky clear below 12,000 feet AGL
QC Flag:automated observation with no human augmentation

TAF for:PAVC (King Cove Arpt, AK, US)
Text:No data found


Page loaded:  11:31 UTC  |   04:31 AM Pacific  |   05:31 AM Mountain  |   06:31 AM Central  |   07:31 AM Eastern

 

ADVISORIES

FORECASTS

FORECASTS

OBSERVATIONS

USER TOOLS

ABOUT US